Time;durP1;ratioP1;P1;durP2;ratioP2;P2;SDS_P1;SDS_P2;PMS_P1;PMS_P2;Temp;Humidity;BMP_temperature;BMP_pressure;BME280_temperature;BME280_humidity;BME280_pressure;Samples;Min_cycle;Max_cycle;Signal;HPM_P1;HPM_P2
2023/06/23 00:01:33;;;;;;;;;;;;;;;-140.72;100.00;52656.69;4987942;28;20041;-69
2023/06/23 00:03:59;;;;;;;;;;;;;;;-140.72;100.00;52652.63;4989528;28;19922;-70
2023/06/23 00:06:25;;;;;;;;;;;;;;;-140.72;100.00;52660.75;4986797;28;19973;-71
2023/06/23 00:08:50;;;;;;;;;;;;;;;-140.72;100.00;52636.38;4990074;28;20230;-70
2023/06/23 00:11:15;;;;;;;;;;;;;;;-140.72;100.00;52733.78;4987820;28;19930;-71
2023/06/23 00:13:40;;;;;;;;;;;;;;;-140.72;100.00;52662.78;4988352;28;20424;-71
2023/06/23 00:16:06;;;;;;;;;;;;;;;-140.72;100.00;52695.25;4985760;28;19976;-71
2023/06/23 00:18:32;;;;;;;;;;;;;;;-140.72;100.00;52666.84;4990748;28;19988;-70
2023/06/23 00:20:57;;;;;;;;;;;;;;;-140.72;100.00;52660.75;4989339;28;20395;-70
2023/06/23 00:23:22;;;;;;;;;;;;;;;-140.72;100.00;52691.19;4988386;28;19922;-71
2023/06/23 00:25:48;;;;;;;;;;;;;;;-140.72;100.00;52676.97;4988733;28;20017;-70
2023/06/23 00:28:13;;;;;;;;;;;;;;;-140.72;100.00;52648.56;4972222;28;19921;-70
2023/06/23 00:30:38;;;;;;;;;;;;;;;-140.72;100.00;52640.44;4988740;28;19964;-71
2023/06/23 00:33:03;;;;;;;;;;;;;;;-140.72;100.00;52658.72;4988230;28;19922;-71
2023/06/23 00:35:29;;;;;;;;;;;;;;;-140.72;100.00;52676.97;4989204;28;19922;-71
2023/06/23 00:37:54;;;;;;;;;;;;;;;-140.72;100.00;52644.50;4989515;28;19922;-70
2023/06/23 00:40:22;;;;;;;;;;;;;;;-140.72;100.00;52681.03;4989980;28;19925;-71
2023/06/23 00:42:53;;;;;;;;;;;;;;;-140.72;100.00;52695.25;4989294;28;19984;-70
2023/06/23 00:45:19;;;;;;;;;;;;;;;-140.72;100.00;52699.31;4989511;28;20382;-70
2023/06/23 00:47:45;;;;;;;;;;;;;;;-140.72;100.00;52687.13;4969057;28;19922;-70
2023/06/23 00:50:20;;;;;;;;;;;;;;;-140.72;100.00;52703.34;4987803;28;20388;-71
2023/06/23 00:52:52;;;;;;;;;;;;;;;-140.72;100.00;52642.47;4976763;28;19944;-70
2023/06/23 00:55:22;;;;;;;;;;;;;;;-140.72;100.00;52681.03;4983438;28;21575;-71
2023/06/23 00:57:48;;;;;;;;;;;;;;;-140.72;100.00;52668.84;4986142;28;19967;-71
2023/06/23 01:00:17;;;;;;;;;;;;;;;-140.72;100.00;52632.34;4990693;28;20292;-71
2023/06/23 01:02:43;;;;;;;;;;;;;;;-140.72;100.00;52650.59;4989070;28;19926;-70
2023/06/23 01:05:09;;;;;;;;;;;;;;;-140.72;100.00;52664.81;4985727;28;19932;-70
2023/06/23 01:07:41;;;;;;;;;;;;;;;-140.72;100.00;52660.75;4986528;28;19958;-71
2023/06/23 01:10:09;;;;;;;;;;;;;;;-140.72;100.00;52666.84;4991417;28;19980;-70
2023/06/23 01:12:47;;;;;;;;;;;;;;;-140.72;100.00;52699.31;4974882;28;19969;-71
2023/06/23 01:15:18;;;;;;;;;;;;;;;-140.72;100.00;52687.13;4973754;28;19921;-70
2023/06/23 01:17:48;;;;;;;;;;;;;;;-140.72;100.00;52658.72;4989021;28;19932;-71
2023/06/23 01:20:21;;;;;;;;;;;;;;;-140.72;100.00;52634.38;4971176;28;20282;-71
2023/06/23 01:22:52;;;;;;;;;;;;;;;-140.72;100.00;52685.09;4987257;28;19922;-71
2023/06/23 01:25:35;;;;;;;;;;;;;;;-140.72;100.00;52679.00;4986745;28;20123;-71
2023/06/23 01:28:19;;;;;;;;;;;;;;;-140.72;100.00;52681.03;4986796;28;19926;-69
2023/06/23 01:30:47;;;;;;;;;;;;;;;-140.72;100.00;52650.59;4987837;28;20323;-70
2023/06/23 01:33:20;;;;;;;;;;;;;;;-140.72;100.00;52683.06;4990653;28;20434;-70
2023/06/23 01:35:49;;;;;;;;;;;;;;;-140.72;100.00;52709.44;4989614;28;19926;-70
2023/06/23 01:38:19;;;;;;;;;;;;;;;-140.72;100.00;52648.56;4986112;28;20395;-71
2023/06/23 01:40:46;;;;;;;;;;;;;;;-140.72;100.00;52676.97;4987237;28;19928;-71
2023/06/23 01:43:13;;;;;;;;;;;;;;;-140.72;100.00;52699.31;4984549;28;20016;-70
2023/06/23 01:45:39;;;;;;;;;;;;;;;-140.72;100.00;52666.84;4984230;28;20288;-70
2023/06/23 01:48:06;;;;;;;;;;;;;;;-140.72;100.00;52672.91;4984509;28;19926;-70
2023/06/23 01:50:33;;;;;;;;;;;;;;;-140.72;100.00;52670.88;4982553;28;19922;-69
2023/06/23 01:53:00;;;;;;;;;;;;;;;-140.72;100.00;52664.81;4984286;28;19925;-69
2023/06/23 01:55:26;;;;;;;;;;;;;;;-140.72;100.00;52666.84;4987934;28;20277;-69
2023/06/23 01:57:53;;;;;;;;;;;;;;;-140.72;100.00;52683.06;4984760;28;19925;-69
2023/06/23 02:00:21;;;;;;;;;;;;;;;-140.72;100.00;52658.72;4986864;28;19925;-69
2023/06/23 02:02:49;;;;;;;;;;;;;;;-140.72;100.00;52689.16;4984743;28;19954;-69
2023/06/23 02:05:16;;;;;;;;;;;;;;;-140.72;100.00;52646.53;4988531;28;19964;-69
2023/06/23 02:07:43;;;;;;;;;;;;;;;-140.72;100.00;52664.81;4985455;28;19930;-69
2023/06/23 02:10:09;;;;;;;;;;;;;;;-140.72;100.00;52676.97;4988591;28;19941;-69
2023/06/23 02:12:35;;;;;;;;;;;;;;;-140.72;100.00;52679.00;4983935;28;19929;-70
2023/06/23 02:15:02;;;;;;;;;;;;;;;-140.72;100.00;52699.31;4986739;28;20280;-69
2023/06/23 02:17:28;;;;;;;;;;;;;;;-140.72;100.00;52676.97;4985816;28;20528;-69
2023/06/23 02:19:55;;;;;;;;;;;;;;;-140.72;100.00;52656.69;4986910;28;20012;-69
2023/06/23 02:22:21;;;;;;;;;;;;;;;-140.72;100.00;52699.31;4985206;28;19991;-70
2023/06/23 02:24:47;;;;;;;;;;;;;;;-140.72;100.00;52662.78;4984954;28;19929;-69
2023/06/23 02:27:12;;;;;;;;;;;;;;;-140.72;100.00;52691.19;4981460;28;19929;-70
2023/06/23 02:29:39;;;;;;;;;;;;;;;-140.72;100.00;52674.94;4985721;28;19992;-69
2023/06/23 02:32:04;;;;;;;;;;;;;;;-140.72;100.00;52674.94;4969606;28;20404;-69
2023/06/23 02:34:30;;;;;;;;;;;;;;;-140.72;100.00;52642.47;4983445;28;19922;-69
2023/06/23 02:36:58;;;;;;;;;;;;;;;-140.72;100.00;52685.09;4989793;28;20403;-69
2023/06/23 02:39:25;;;;;;;;;;;;;;;-140.72;100.00;52695.25;4985419;28;19972;-69
2023/06/23 02:41:53;;;;;;;;;;;;;;;-140.72;100.00;52695.25;4985842;28;19933;-69
2023/06/23 02:44:23;;;;;;;;;;;;;;;-140.72;100.00;52648.56;4985062;28;19921;-69
2023/06/23 02:46:52;;;;;;;;;;;;;;;-140.72;100.00;52666.84;4988041;28;19992;-70
2023/06/23 02:49:21;;;;;;;;;;;;;;;-140.72;100.00;52691.19;4986761;28;19932;-69
2023/06/23 02:51:48;;;;;;;;;;;;;;;-140.72;100.00;52666.84;4988064;28;19922;-69
2023/06/23 02:54:19;;;;;;;;;;;;;;;-140.72;100.00;52656.69;4988351;28;19921;-70
2023/06/23 02:56:46;;;;;;;;;;;;;;;-140.72;100.00;52691.19;4985693;28;19973;-69
2023/06/23 02:59:14;;;;;;;;;;;;;;;-140.72;100.00;52711.47;4984149;28;19921;-69
2023/06/23 03:01:41;;;;;;;;;;;;;;;-140.72;100.00;52670.88;4986931;28;19921;-69
2023/06/23 03:04:06;;;;;;;;;;;;;;;-140.72;100.00;52662.78;4985631;28;19922;-70
2023/06/23 03:06:34;;;;;;;;;;;;;;;-140.72;100.00;52656.69;4990463;28;19946;-69
2023/06/23 03:08:59;;;;;;;;;;;;;;;-140.72;100.00;52697.28;4987202;28;19922;-69
2023/06/23 03:11:25;;;;;;;;;;;;;;;-140.72;100.00;52668.84;4985583;28;19922;-69
2023/06/23 03:13:50;;;;;;;;;;;;;;;-140.72;100.00;52674.94;4982294;28;20063;-69
2023/06/23 03:16:20;;;;;;;;;;;;;;;-140.72;100.00;52691.19;4986702;28;19972;-69
2023/06/23 03:18:53;;;;;;;;;;;;;;;-140.72;100.00;52666.84;4984437;28;19958;-69
2023/06/23 03:21:19;;;;;;;;;;;;;;;-140.72;100.00;52685.09;4985794;28;20020;-69
2023/06/23 03:23:49;;;;;;;;;;;;;;;-140.72;100.00;52683.06;4985624;28;20029;-69
2023/06/23 03:26:16;;;;;;;;;;;;;;;-140.72;100.00;52695.25;4985762;28;19922;-69
2023/06/23 03:28:41;;;;;;;;;;;;;;;-140.72;100.00;52666.84;4983331;28;19976;-69
2023/06/23 03:31:07;;;;;;;;;;;;;;;-140.72;100.00;52670.88;4984534;28;20016;-69
2023/06/23 03:33:34;;;;;;;;;;;;;;;-140.72;100.00;52695.25;4982064;28;19929;-69
2023/06/23 03:36:17;;;;;;;;;;;;;;;-140.72;100.00;52723.66;4982778;28;19999;-69
2023/06/23 03:39:01;;;;;;;;;;;;;;;-140.72;100.00;52679.00;4985335;28;19932;-69
2023/06/23 03:41:30;;;;;;;;;;;;;;;-140.72;100.00;52687.13;4967868;28;19925;-69
2023/06/23 03:44:03;;;;;;;;;;;;;;;-140.72;100.00;52713.50;4984610;28;20393;-69
2023/06/23 03:46:35;;;;;;;;;;;;;;;-140.72;100.00;52725.69;4985367;28;20005;-69
2023/06/23 03:49:01;;;;;;;;;;;;;;;-140.72;100.00;52672.91;4985704;28;20074;-69
2023/06/23 03:51:27;;;;;;;;;;;;;;;-140.72;100.00;52676.97;4984469;28;19921;-69
2023/06/23 03:53:54;;;;;;;;;;;;;;;-140.72;100.00;52705.38;4985816;28;19926;-69
2023/06/23 03:56:21;;;;;;;;;;;;;;;-140.72;100.00;52687.13;4985834;28;19929;-69
2023/06/23 03:58:49;;;;;;;;;;;;;;;-140.72;100.00;52670.88;4984389;28;19934;-69
2023/06/23 04:01:14;;;;;;;;;;;;;;;-140.72;100.00;52733.78;4985237;28;19937;-69
2023/06/23 04:03:40;;;;;;;;;;;;;;;-140.72;100.00;52713.50;4985648;28;19988;-69
2023/06/23 04:06:07;;;;;;;;;;;;;;;-140.72;100.00;52683.06;4985356;28;20060;-69
2023/06/23 04:08:33;;;;;;;;;;;;;;;-140.72;100.00;52642.47;4986414;28;20355;-69
2023/06/23 04:11:00;;;;;;;;;;;;;;;-140.72;100.00;52683.06;4987064;28;19922;-69
2023/06/23 04:13:26;;;;;;;;;;;;;;;-140.72;100.00;52670.88;4986386;28;19925;-69
2023/06/23 04:15:52;;;;;;;;;;;;;;;-140.72;100.00;52650.59;4986552;28;20008;-69
2023/06/23 04:18:18;;;;;;;;;;;;;;;-140.72;100.00;52676.97;4988731;28;20049;-69
2023/06/23 04:20:44;;;;;;;;;;;;;;;-140.72;100.00;52689.16;4987098;28;19922;-69
2023/06/23 04:23:10;;;;;;;;;;;;;;;-140.72;100.00;52654.66;4987139;28;19928;-69
2023/06/23 04:25:36;;;;;;;;;;;;;;;-140.72;100.00;52654.66;4986694;28;19933;-69
2023/06/23 04:28:03;;;;;;;;;;;;;;;-140.72;100.00;52634.38;4970247;28;20015;-70
2023/06/23 04:30:29;;;;;;;;;;;;;;;-140.72;100.00;52679.00;4985648;28;19922;-69
2023/06/23 04:32:54;;;;;;;;;;;;;;;-140.72;100.00;52628.28;4987054;28;20579;-69
2023/06/23 04:35:20;;;;;;;;;;;;;;;-140.72;100.00;52591.75;4989136;28;19992;-70
2023/06/23 04:37:52;;;;;;;;;;;;;;;-140.72;100.00;52644.50;4986849;28;20001;-69
2023/06/23 04:40:25;;;;;;;;;;;;;;;-140.72;100.00;52605.94;4984484;28;19945;-69
2023/06/23 04:42:53;;;;;;;;;;;;;;;-140.72;100.00;52599.88;4986064;28;19937;-70
2023/06/23 04:45:21;;;;;;;;;;;;;;;-140.72;100.00;52634.38;4985579;28;20326;-70
2023/06/23 04:47:48;;;;;;;;;;;;;;;-140.72;100.00;52622.19;4983636;28;19940;-69
2023/06/23 04:50:15;;;;;;;;;;;;;;;-140.72;100.00;52622.19;4981976;28;19937;-69
2023/06/23 04:52:44;;;;;;;;;;;;;;;-140.72;100.00;52622.19;4967139;28;20021;-69
2023/06/23 04:55:13;;;;;;;;;;;;;;;-140.72;100.00;52630.31;4968374;28;19921;-70
2023/06/23 04:57:39;;;;;;;;;;;;;;;-140.72;100.00;52605.94;4989024;28;20309;-71
2023/06/23 05:00:07;;;;;;;;;;;;;;;-140.72;100.00;52626.25;4969694;28;19921;-71
2023/06/23 05:02:32;;;;;;;;;;;;;;;-140.72;100.00;52610.00;4969370;28;19928;-71
2023/06/23 05:04:58;;;;;;;;;;;;;;;-140.72;100.00;52585.66;4985464;28;19925;-72
2023/06/23 05:07:24;;;;;;;;;;;;;;;-140.72;100.00;52622.19;4989224;28;19929;-72
2023/06/23 05:09:50;;;;;;;;;;;;;;;-140.72;100.00;52581.59;4992556;28;19929;-72
2023/06/23 05:12:16;;;;;;;;;;;;;;;-140.72;100.00;52626.25;4973250;28;19921;-71
2023/06/23 05:14:43;;;;;;;;;;;;;;;-140.72;100.00;52591.75;4972245;28;19922;-72
2023/06/23 05:17:09;;;;;;;;;;;;;;;-140.72;100.00;52636.38;4988203;28;19922;-72
2023/06/23 05:19:36;;;;;;;;;;;;;;;-140.72;100.00;52654.66;4992957;28;20292;-69
2023/06/23 05:22:03;;;;;;;;;;;;;;;-140.72;100.00;52630.31;4988741;28;20010;-69
2023/06/23 05:24:29;;;;;;;;;;;;;;;-140.72;100.00;52601.91;4991957;28;19968;-70
2023/06/23 05:26:55;;;;;;;;;;;;;;;-140.72;100.00;52599.88;4991377;28;19929;-69
2023/06/23 05:29:21;;;;;;;;;;;;;;;-140.72;100.00;52654.66;4991734;28;19918;-71
2023/06/23 05:31:47;;;;;;;;;;;;;;;-140.72;100.00;52636.38;4971748;28;20276;-69
2023/06/23 05:34:15;;;;;;;;;;;;;;;-140.72;100.00;52595.81;4974202;28;19996;-69
2023/06/23 05:36:41;;;;;;;;;;;;;;;-140.72;100.00;52605.94;4990595;28;20295;-79
2023/06/23 05:39:08;;;;;;;;;;;;;;;-140.72;100.00;52636.38;4967955;28;19922;-72
2023/06/23 05:41:33;;;;;;;;;;;;;;;-140.72;100.00;52601.91;4983486;28;20020;-72
2023/06/23 05:43:59;;;;;;;;;;;;;;;-140.72;100.00;52620.16;4989167;28;20064;-71
2023/06/23 05:46:25;;;;;;;;;;;;;;;-140.72;100.00;52589.72;4981326;28;20280;-71
2023/06/23 05:48:52;;;;;;;;;;;;;;;-140.72;100.00;52593.78;4970427;28;19929;-71
2023/06/23 05:51:20;;;;;;;;;;;;;;;-140.72;100.00;52587.69;4988592;28;20020;-71
2023/06/23 05:53:48;;;;;;;;;;;;;;;-140.72;100.00;52591.75;4977604;28;19933;-73
2023/06/23 05:56:15;;;;;;;;;;;;;;;-140.72;100.00;52589.72;4987840;28;19925;-70
2023/06/23 05:58:44;;;;;;;;;;;;;;;-140.72;100.00;52595.81;4972512;28;19918;-70
2023/06/23 06:01:12;;;;;;;;;;;;;;;-140.72;100.00;52571.47;4982723;28;19922;-72
2023/06/23 06:03:40;;;;;;;;;;;;;;;-140.72;100.00;52597.84;4988113;28;19922;-72
2023/06/23 06:06:07;;;;;;;;;;;;;;;-140.72;100.00;52610.00;4987950;28;20467;-72
2023/06/23 06:08:33;;;;;;;;;;;;;;;-140.72;100.00;52561.31;4983753;28;19918;-72
2023/06/23 06:11:00;;;;;;;;;;;;;;;-140.72;100.00;52575.50;4975045;28;19924;-72
2023/06/23 06:13:28;;;;;;;;;;;;;;;-140.72;100.00;52642.47;4984562;28;19918;-72
2023/06/23 06:15:55;;;;;;;;;;;;;;;-140.72;100.00;52555.22;4989412;28;20005;-72
2023/06/23 06:18:27;;;;;;;;;;;;;;;-140.72;100.00;52565.38;4988260;28;20425;-72
2023/06/23 06:20:54;;;;;;;;;;;;;;;-140.72;100.00;52626.25;4982179;28;19929;-71
2023/06/23 06:23:20;;;;;;;;;;;;;;;-140.72;100.00;52571.47;4992289;28;19921;-72
2023/06/23 06:25:48;;;;;;;;;;;;;;;-140.72;100.00;52534.94;4988603;28;20068;-70
2023/06/23 06:28:15;;;;;;;;;;;;;;;-140.72;100.00;52618.13;4993850;28;19917;-70
2023/06/23 06:30:41;;;;;;;;;;;;;;;-140.72;100.00;52610.00;4978917;28;20155;-70
2023/06/23 06:33:08;;;;;;;;;;;;;;;-140.72;100.00;52605.94;4985007;28;19986;-70
2023/06/23 06:35:34;;;;;;;;;;;;;;;-140.72;100.00;52545.06;4995884;28;19965;-70
2023/06/23 06:38:00;;;;;;;;;;;;;;;-140.72;100.00;52593.78;4985369;28;19973;-70
2023/06/23 06:40:26;;;;;;;;;;;;;;;-140.72;100.00;52559.28;5001765;28;19917;-70
2023/06/23 06:42:51;;;;;;;;;;;;;;;-140.72;100.00;52565.38;4992093;28;19922;-70
2023/06/23 06:45:17;;;;;;;;;;;;;;;-140.72;100.00;52539.00;4993176;28;19969;-70
2023/06/23 06:47:43;;;;;;;;;;;;;;;-140.72;100.00;52581.59;4970697;28;20446;-70
2023/06/23 06:50:15;;;;;;;;;;;;;;;-140.72;100.00;52520.72;4988611;28;19944;-70
2023/06/23 06:52:42;;;;;;;;;;;;;;;-140.72;100.00;52555.22;4988208;28;19918;-70
2023/06/23 06:55:09;;;;;;;;;;;;;;;-140.72;100.00;52541.03;4965427;28;19928;-70
2023/06/23 06:57:35;;;;;;;;;;;;;;;-140.72;100.00;52587.69;4992944;28;20039;-72
2023/06/23 07:00:01;;;;;;;;;;;;;;;-140.72;100.00;52524.78;4979794;28;19938;-71
2023/06/23 07:02:27;;;;;;;;;;;;;;;-140.72;100.00;52575.50;4991481;28;19929;-73
2023/06/23 07:04:53;;;;;;;;;;;;;;;-140.72;100.00;52502.47;4989965;28;19929;-70
2023/06/23 07:07:18;;;;;;;;;;;;;;;-140.72;100.00;52524.78;4992083;28;20214;-69
2023/06/23 07:09:43;;;;;;;;;;;;;;;-140.72;100.00;52516.66;4961614;28;20027;-70
2023/06/23 07:12:09;;;;;;;;;;;;;;;-140.72;100.00;52563.34;4992411;28;19921;-70
2023/06/23 07:14:34;;;;;;;;;;;;;;;-140.72;100.00;52528.84;4972323;28;19924;-72
2023/06/23 07:17:00;;;;;;;;;;;;;;;-140.72;100.00;52534.94;4992504;28;19932;-71
2023/06/23 07:19:25;;;;;;;;;;;;;;;-140.72;100.00;52486.22;4976305;28;20384;-72
2023/06/23 07:21:50;;;;;;;;;;;;;;;-140.72;100.00;52502.47;4993974;28;19926;-71
2023/06/23 07:24:15;;;;;;;;;;;;;;;-140.72;100.00;52514.63;4991896;28;20020;-72
2023/06/23 07:26:41;;;;;;;;;;;;;;;-140.72;100.00;52496.38;4992234;28;19921;-71
2023/06/23 07:29:06;;;;;;;;;;;;;;;-140.72;100.00;52467.97;4991415;28;19930;-71
2023/06/23 07:31:33;;;;;;;;;;;;;;;-140.72;100.00;52492.31;4994380;28;20008;-69
2023/06/23 07:33:58;;;;;;;;;;;;;;;-140.72;100.00;52506.53;4994273;28;20021;-68
2023/06/23 07:36:23;;;;;;;;;;;;;;;-140.72;100.00;52480.16;4991870;28;20363;-68
2023/06/23 07:38:48;;;;;;;;;;;;;;;-140.72;100.00;52520.72;4993455;28;19922;-67
2023/06/23 07:41:14;;;;;;;;;;;;;;;-140.72;100.00;52488.25;4996351;28;20364;-68
2023/06/23 07:43:43;;;;;;;;;;;;;;;-140.72;100.00;52480.16;4995575;28;19982;-74
2023/06/23 07:46:08;;;;;;;;;;;;;;;-140.72;100.00;52447.69;4993657;28;19929;-69
2023/06/23 07:48:34;;;;;;;;;;;;;;;-140.72;100.00;52492.31;4995442;28;20313;-69
2023/06/23 07:50:59;;;;;;;;;;;;;;;-140.72;100.00;52498.41;4991997;28;19932;-69
2023/06/23 07:53:24;;;;;;;;;;;;;;;-140.72;100.00;52467.97;4986634;28;20025;-69
2023/06/23 07:55:49;;;;;;;;;;;;;;;-140.72;100.00;52439.56;4988369;28;19926;-71
2023/06/23 07:58:17;;;;;;;;;;;;;;;-140.72;100.00;52472.03;4987722;28;20025;-69
2023/06/23 08:00:42;;;;;;;;;;;;;;;-140.72;100.00;52488.25;4983166;28;19921;-69
2023/06/23 08:03:07;;;;;;;;;;;;;;;-140.72;100.00;52451.72;4988631;28;20118;-71
2023/06/23 08:05:33;;;;;;;;;;;;;;;-140.72;100.00;52431.44;4990896;28;20379;-69
2023/06/23 08:07:58;;;;;;;;;;;;;;;-140.72;100.00;52478.13;4986267;28;20364;-69
2023/06/23 08:10:23;;;;;;;;;;;;;;;-140.72;100.00;52439.56;4977375;28;19922;-70
2023/06/23 08:12:49;;;;;;;;;;;;;;;-140.72;100.00;52463.91;4973709;28;20248;-70
2023/06/23 08:15:14;;;;;;;;;;;;;;;-140.72;100.00;52439.56;4995828;28;20350;-70
2023/06/23 08:17:40;;;;;;;;;;;;;;;-140.72;100.00;52431.44;4985055;28;20790;-69
2023/06/23 08:20:05;;;;;;;;;;;;;;;-140.72;100.00;52439.56;4988809;28;19926;-70
2023/06/23 08:22:30;;;;;;;;;;;;;;;-140.72;100.00;52421.28;4984899;28;19949;-69
2023/06/23 08:24:56;;;;;;;;;;;;;;;-140.72;100.00;52431.44;4972455;28;19922;-70
2023/06/23 08:27:21;;;;;;;;;;;;;;;-140.72;100.00;52413.19;4994029;28;19933;-71
2023/06/23 08:29:46;;;;;;;;;;;;;;;-140.72;100.00;52415.22;4992330;28;19928;-70
2023/06/23 08:32:12;;;;;;;;;;;;;;;-140.72;100.00;52411.16;4990390;28;19928;-72
2023/06/23 08:34:37;;;;;;;;;;;;;;;-140.72;100.00;52411.16;4989929;28;19932;-72
2023/06/23 08:37:03;;;;;;;;;;;;;;;-140.72;100.00;52370.56;4992122;28;19929;-72
2023/06/23 08:39:28;;;;;;;;;;;;;;;-140.72;100.00;52386.81;4963212;28;20025;-73
2023/06/23 08:41:54;;;;;;;;;;;;;;;-140.72;100.00;52413.19;4988082;28;19917;-72
2023/06/23 08:44:23;;;;;;;;;;;;;;;-140.72;100.00;52362.44;4995580;28;20295;-72
2023/06/23 08:46:52;;;;;;;;;;;;;;;-140.72;100.00;52384.78;4976413;28;20391;-72
2023/06/23 08:49:20;;;;;;;;;;;;;;;-140.72;100.00;52390.84;4991018;28;20291;-71
2023/06/23 08:51:45;;;;;;;;;;;;;;;-140.72;100.00;52378.69;4990509;28;19933;-72
2023/06/23 08:54:10;;;;;;;;;;;;;;;-140.72;100.00;52366.50;4991680;28;19926;-71
2023/06/23 08:56:36;;;;;;;;;;;;;;;-140.72;100.00;52350.28;4990782;28;19922;-73
2023/06/23 08:59:01;;;;;;;;;;;;;;;-140.72;100.00;52330.00;4989645;28;19965;-72
2023/06/23 09:01:26;;;;;;;;;;;;;;;-140.72;100.00;52321.88;4988559;28;19926;-73
2023/06/23 09:03:52;;;;;;;;;;;;;;;-140.72;100.00;52325.94;4994846;28;19922;-72
2023/06/23 09:06:17;;;;;;;;;;;;;;;-140.72;100.00;52334.03;4997408;28;19930;-71
2023/06/23 09:08:42;;;;;;;;;;;;;;;-140.72;100.00;52340.13;4991787;28;19921;-71
2023/06/23 09:11:07;;;;;;;;;;;;;;;-140.72;100.00;52327.97;4993734;28;19997;-72
2023/06/23 09:13:36;;;;;;;;;;;;;;;-140.72;31.74;52297.53;4991012;28;19922;-70
2023/06/23 09:16:01;;;;;;;;;;;;;;;-140.72;0.00;52287.38;4993668;28;19925;-69
2023/06/23 09:18:27;;;;;;;;;;;;;;;-140.72;0.00;52287.38;4993919;28;19926;-69
2023/06/23 09:20:52;;;;;;;;;;;;;;;-140.72;0.00;52293.47;4989314;28;20363;-69
2023/06/23 09:23:21;;;;;;;;;;;;;;;-140.72;0.00;52281.28;4974474;28;19926;-69
2023/06/23 09:25:48;;;;;;;;;;;;;;;-140.72;0.00;52236.66;4972010;28;20036;-69
2023/06/23 09:28:29;;;;;;;;;;;;;;;-140.72;0.00;52232.59;4984789;28;19917;-69
2023/06/23 09:30:57;;;;;;;;;;;;;;;-140.72;0.00;52212.31;4989019;28;20443;-70
2023/06/23 09:33:24;;;;;;;;;;;;;;;-140.72;0.00;52208.25;4987658;28;20286;-70
2023/06/23 09:35:53;;;;;;;;;;;;;;;-140.72;0.00;52196.06;4992532;28;19944;-70
2023/06/23 09:38:22;;;;;;;;;;;;;;;-140.72;0.00;52200.13;4992850;28;19922;-70
2023/06/23 09:40:48;;;;;;;;;;;;;;;-140.72;0.00;52187.97;4992747;28;19932;-70
2023/06/23 09:43:13;;;;;;;;;;;;;;;-140.72;0.00;52185.94;4993136;28;20012;-70
2023/06/23 09:45:39;;;;;;;;;;;;;;;-140.72;0.00;52131.16;4984007;28;20287;-69
2023/06/23 09:48:05;;;;;;;;;;;;;;;-140.72;0.00;52094.63;4990928;28;20021;-68
2023/06/23 09:50:30;;;;;;;;;;;;;;;-140.72;0.00;52096.66;4983615;28;19929;-68
2023/06/23 09:52:59;;;;;;;;;;;;;;;-140.72;0.00;52086.50;4970987;28;19964;-69
2023/06/23 09:55:24;;;;;;;;;;;;;;;-140.72;0.00;52060.13;4992654;28;19925;-69
2023/06/23 09:57:49;;;;;;;;;;;;;;;-140.72;0.00;52056.06;4988559;28;19998;-69
2023/06/23 10:00:15;;;;;;;;;;;;;;;-140.72;0.00;52072.31;4981371;28;20079;-69
2023/06/23 10:02:40;;;;;;;;;;;;;;;-140.72;0.00;52056.06;4981096;28;20352;-69
2023/06/23 10:05:06;;;;;;;;;;;;;;;-140.72;0.00;52084.47;4992088;28;20031;-70
2023/06/23 10:07:31;;;;;;;;;;;;;;;-140.72;0.00;52052.00;4981996;28;20285;-71
2023/06/23 10:09:58;;;;;;;;;;;;;;;-140.72;0.00;52072.31;4974532;28;20304;-69
2023/06/23 10:12:26;;;;;;;;;;;;;;;-140.72;0.00;52021.56;4991875;28;19977;-71
2023/06/23 10:14:52;;;;;;;;;;;;;;;-140.72;0.00;52037.81;4995120;28;19980;-70
2023/06/23 10:17:17;;;;;;;;;;;;;;;-140.72;0.00;52027.66;4989482;28;19929;-70
2023/06/23 10:19:46;;;;;;;;;;;;;;;-140.72;0.00;52015.50;4985677;28;19921;-70
2023/06/23 10:22:15;;;;;;;;;;;;;;;-140.72;0.00;52019.56;4991789;28;19930;-70
2023/06/23 10:24:44;;;;;;;;;;;;;;;-140.72;0.00;52062.16;4991360;28;20341;-70
2023/06/23 10:27:10;;;;;;;;;;;;;;;-140.72;0.00;51976.94;4976822;28;19961;-69
2023/06/23 10:29:38;;;;;;;;;;;;;;;-140.72;0.00;51952.59;4980783;28;19928;-71
2023/06/23 10:32:06;;;;;;;;;;;;;;;-140.72;0.00;51920.13;4967899;28;19918;-69
2023/06/23 10:34:33;;;;;;;;;;;;;;;-140.72;0.00;51936.38;4989126;28;19918;-70
2023/06/23 10:37:01;;;;;;;;;;;;;;;-140.72;0.00;51855.22;4973571;28;20447;-71
2023/06/23 10:39:29;;;;;;;;;;;;;;;-140.72;0.00;51905.94;4980080;28;19929;-71
2023/06/23 10:41:58;;;;;;;;;;;;;;;-140.72;0.00;51920.13;4966481;28;19918;-72
2023/06/23 10:44:23;;;;;;;;;;;;;;;-140.72;0.00;51950.56;4979943;28;20005;-71
2023/06/23 10:46:49;;;;;;;;;;;;;;;-140.72;0.00;51936.38;4983853;28;20051;-74
2023/06/23 10:49:15;;;;;;;;;;;;;;;-140.72;0.00;51948.53;4996312;28;20245;-73
2023/06/23 10:51:41;;;;;;;;;;;;;;;-140.72;0.00;51857.25;4989829;28;19918;-71
2023/06/23 10:54:24;;;;;;;;;;;;;;;-140.72;0.00;51867.38;4999464;28;19922;-72
2023/06/23 10:56:52;;;;;;;;;;;;;;;-140.72;0.00;51869.41;4991056;28;19929;-71
2023/06/23 10:59:17;;;;;;;;;;;;;;;-140.72;0.00;51928.25;4988538;28;20331;-71
2023/06/23 11:02:01;;;;;;;;;;;;;;;-140.72;0.00;51901.88;4988871;28;19933;-71
2023/06/23 11:04:46;;;;;;;;;;;;;;;-140.72;0.00;51889.69;4979370;28;19948;-78
2023/06/23 11:07:15;;;;;;;;;;;;;;;-140.72;0.00;51853.19;4978018;28;20005;-71
2023/06/23 11:09:58;;;;;;;;;;;;;;;-140.72;0.00;51826.81;4994110;28;19976;-71
2023/06/23 11:12:39;;;;;;;;;;;;;;;-140.72;0.00;51814.63;4970623;28;19961;-70
2023/06/23 11:15:23;;;;;;;;;;;;;;;-140.72;0.00;51790.28;4986916;28;19945;-71
2023/06/23 11:17:48;;;;;;;;;;;;;;;-140.72;0.00;51818.69;4981359;28;20021;-71
2023/06/23 11:20:35;;;;;;;;;;;;;;;-140.72;0.00;51802.47;4965093;28;20420;-70
2023/06/23 11:23:07;;;;;;;;;;;;;;;-140.72;0.00;51843.03;4986570;28;19918;-70
2023/06/23 11:25:33;;;;;;;;;;;;;;;-140.72;0.00;51804.50;4968928;28;19972;-74
2023/06/23 11:28:16;;;;;;;;;;;;;;;-140.72;0.00;51782.16;4985831;28;20405;-70
2023/06/23 11:30:53;;;;;;;;;;;;;;;-140.72;0.00;51733.47;4991849;28;20297;-70
2023/06/23 11:33:29;;;;;;;;;;;;;;;-140.72;0.00;51727.41;4970318;28;19929;-71
2023/06/23 11:35:54;;;;;;;;;;;;;;;-140.72;0.00;51705.06;4985322;28;19925;-70
2023/06/23 11:38:20;;;;;;;;;;;;;;;-140.72;0.00;51701.03;4990936;28;19922;-70
2023/06/23 11:40:46;;;;;;;;;;;;;;;-140.72;0.00;51737.53;4984353;28;19944;-70
2023/06/23 11:43:13;;;;;;;;;;;;;;;-140.72;0.00;51741.59;4989057;28;19933;-72
2023/06/23 11:45:44;;;;;;;;;;;;;;;-140.72;0.00;51753.78;4995639;28;19929;-70
2023/06/23 11:48:10;;;;;;;;;;;;;;;-140.72;0.00;51676.69;4966907;28;19918;-71
2023/06/23 11:50:36;;;;;;;;;;;;;;;-140.72;0.00;51719.28;4990379;28;19944;-70
2023/06/23 11:53:01;;;;;;;;;;;;;;;-140.72;0.00;51741.59;4983865;28;19926;-69
2023/06/23 11:55:27;;;;;;;;;;;;;;;-140.72;0.00;51790.28;4995618;28;20280;-69
2023/06/23 11:57:53;;;;;;;;;;;;;;;-140.72;0.00;51794.34;4973549;28;19932;-70
2023/06/23 12:00:21;;;;;;;;;;;;;;;-140.72;0.00;51798.41;5008982;28;19972;-71
2023/06/23 12:02:49;;;;;;;;;;;;;;;-140.72;0.00;51855.22;4999693;28;19922;-70
2023/06/23 12:05:15;;;;;;;;;;;;;;;-140.72;0.00;51770.00;4995779;28;19960;-70
2023/06/23 12:07:40;;;;;;;;;;;;;;;-140.72;0.00;51765.94;4995264;28;19917;-70
2023/06/23 12:10:08;;;;;;;;;;;;;;;-140.72;0.00;51735.50;4995319;28;19940;-71
2023/06/23 12:12:33;;;;;;;;;;;;;;;-140.72;0.00;51709.13;4994088;28;19926;-70
2023/06/23 12:14:59;;;;;;;;;;;;;;;-140.72;0.00;51670.59;4993428;28;19997;-70
2023/06/23 12:17:27;;;;;;;;;;;;;;;-140.72;0.00;51668.56;4994094;28;20431;-69
2023/06/23 12:19:54;;;;;;;;;;;;;;;-140.72;0.00;51688.84;4991357;28;19985;-70
2023/06/23 12:22:20;;;;;;;;;;;;;;;-140.72;0.00;51699.00;4989993;28;19929;-70
2023/06/23 12:24:45;;;;;;;;;;;;;;;-140.72;0.00;51759.84;4977134;28;19929;-74